sensor_id;sensor_type;location;lat;lon;timestamp;pressure;altitude;pressure_sealevel;temperature;humidity
66857;BME280;53766;50.280;19.160;2023-04-01T00:00:12;96712.31;;;17.81;46.95
66857;BME280;53766;50.280;19.160;2023-04-01T00:03:00;96713.38;;;17.80;46.92
66857;BME280;53766;50.280;19.160;2023-04-01T00:05:28;96706.41;;;17.79;46.86
66857;BME280;53766;50.280;19.160;2023-04-01T00:07:55;96704.56;;;17.79;47.02
66857;BME280;53766;50.280;19.160;2023-04-01T00:10:23;96704.56;;;17.79;46.87
66857;BME280;53766;50.280;19.160;2023-04-01T00:12:50;96700.06;;;17.80;46.97
66857;BME280;53766;50.280;19.160;2023-04-01T00:15:18;96700.06;;;17.80;47.02
66857;BME280;53766;50.280;19.160;2023-04-01T00:17:45;96697.38;;;17.80;47.05
66857;BME280;53766;50.280;19.160;2023-04-01T00:20:13;96700.06;;;17.80;46.95
66857;BME280;53766;50.280;19.160;2023-04-01T00:22:41;96694.16;;;17.78;46.97
66857;BME280;53766;50.280;19.160;2023-04-01T00:25:09;96694.72;;;17.80;47.01
66857;BME280;53766;50.280;19.160;2023-04-01T00:27:36;96693.09;;;17.79;46.88
66857;BME280;53766;50.280;19.160;2023-04-01T00:30:06;96698.44;;;17.79;46.98
66857;BME280;53766;50.280;19.160;2023-04-01T00:32:34;96694.16;;;17.78;46.97
66857;BME280;53766;50.280;19.160;2023-04-01T00:35:03;96698.44;;;17.79;47.10
66857;BME280;53766;50.280;19.160;2023-04-01T00:37:30;96693.09;;;17.79;47.16
66857;BME280;53766;50.280;19.160;2023-04-01T00:39:58;96695.19;;;17.77;47.08
66857;BME280;53766;50.280;19.160;2023-04-01T00:42:26;96689.88;;;17.77;46.91
66857;BME280;53766;50.280;19.160;2023-04-01T00:44:55;96696.03;;;17.77;46.96
66857;BME280;53766;50.280;19.160;2023-04-01T00:47:23;96697.84;;;17.77;46.86
66857;BME280;53766;50.280;19.160;2023-04-01T00:49:53;96700.53;;;17.77;47.03
66857;BME280;53766;50.280;19.160;2023-04-01T00:52:24;96694.16;;;17.78;47.11
66857;BME280;53766;50.280;19.160;2023-04-01T00:54:56;96691.50;;;17.78;47.05
66857;BME280;53766;50.280;19.160;2023-04-01T00:57:34;96691.50;;;17.78;47.14
66857;BME280;53766;50.280;19.160;2023-04-01T01:00:09;96693.59;;;17.76;46.96
66857;BME280;53766;50.280;19.160;2023-04-01T01:02:38;96688.03;;;17.77;47.12
66857;BME280;53766;50.280;19.160;2023-04-01T01:05:06;96699.72;;;17.76;47.03
66857;BME280;53766;50.280;19.160;2023-04-01T01:07:42;96700.78;;;17.75;47.00
66857;BME280;53766;50.280;19.160;2023-04-01T01:10:30;96700.53;;;17.77;47.16
66857;BME280;53766;50.280;19.160;2023-04-01T01:13:11;96702.66;;;17.75;47.10
66857;BME280;53766;50.280;19.160;2023-04-01T01:21:22;96689.34;;;17.75;46.99
66857;BME280;53766;50.280;19.160;2023-04-01T01:27:11;96698.34;;;17.74;47.08
66857;BME280;53766;50.280;19.160;2023-04-01T01:30:09;96682.38;;;17.74;47.06
66857;BME280;53766;50.280;19.160;2023-04-01T01:35:24;96685.84;;;17.74;47.08
66857;BME280;53766;50.280;19.160;2023-04-01T01:37:56;96685.03;;;17.74;47.07
66857;BME280;53766;50.280;19.160;2023-04-01T01:40:26;96686.09;;;17.73;47.12
66857;BME280;53766;50.280;19.160;2023-04-01T01:42:59;96679.72;;;17.74;47.14
66857;BME280;53766;50.280;19.160;2023-04-01T01:45:27;96683.44;;;17.73;47.20
66857;BME280;53766;50.280;19.160;2023-04-01T01:47:59;96683.44;;;17.73;47.06
66857;BME280;53766;50.280;19.160;2023-04-01T01:50:27;96679.72;;;17.74;47.23
66857;BME280;53766;50.280;19.160;2023-04-01T01:53:04;96683.44;;;17.73;47.18
66857;BME280;53766;50.280;19.160;2023-04-01T01:55:37;96680.78;;;17.73;47.17
66857;BME280;53766;50.280;19.160;2023-04-01T02:01:05;96685.28;;;17.72;47.21
66857;BME280;53766;50.280;19.160;2023-04-01T02:03:36;96694.88;;;17.73;47.26
66857;BME280;53766;50.280;19.160;2023-04-01T02:06:07;96686.09;;;17.73;47.20
66857;BME280;53766;50.280;19.160;2023-04-01T02:08:52;96693.25;;;17.72;47.20
66857;BME280;53766;50.280;19.160;2023-04-01T02:11:27;96693.25;;;17.72;47.19
66857;BME280;53766;50.280;19.160;2023-04-01T02:14:04;96692.47;;;17.72;47.18
66857;BME280;53766;50.280;19.160;2023-04-01T02:16:40;96699.41;;;17.73;47.15
66857;BME280;53766;50.280;19.160;2023-04-01T02:19:11;96697.78;;;17.72;47.34
66857;BME280;53766;50.280;19.160;2023-04-01T02:21:40;96702.31;;;17.71;47.20
66857;BME280;53766;50.280;19.160;2023-04-01T02:24:12;96702.31;;;17.71;47.23
66857;BME280;53766;50.280;19.160;2023-04-01T02:26:42;96702.31;;;17.71;47.21
66857;BME280;53766;50.280;19.160;2023-04-01T02:29:11;96699.66;;;17.71;47.28
66857;BME280;53766;50.280;19.160;2023-04-01T02:31:39;96708.44;;;17.72;47.30
66857;BME280;53766;50.280;19.160;2023-04-01T02:34:07;96712.16;;;17.71;47.22
66857;BME280;53766;50.280;19.160;2023-04-01T02:36:35;96711.09;;;17.72;47.22
66857;BME280;53766;50.280;19.160;2023-04-01T02:39:05;96706.84;;;17.71;47.25
66857;BME280;53766;50.280;19.160;2023-04-01T02:41:38;96713.75;;;17.72;47.28
66857;BME280;53766;50.280;19.160;2023-04-01T02:44:07;96712.16;;;17.71;47.39
66857;BME280;53766;50.280;19.160;2023-04-01T02:46:34;96720.16;;;17.71;47.31
66857;BME280;53766;50.280;19.160;2023-04-01T02:49:02;96718.28;;;17.71;47.37
66857;BME280;53766;50.280;19.160;2023-04-01T02:51:31;96718.50;;;17.69;47.25
66857;BME280;53766;50.280;19.160;2023-04-01T02:53:59;96721.19;;;17.69;47.34
66857;BME280;53766;50.280;19.160;2023-04-01T02:56:26;96720.38;;;17.69;47.47
66857;BME280;53766;50.280;19.160;2023-04-01T02:58:55;96726.50;;;17.69;47.46
66857;BME280;53766;50.280;19.160;2023-04-01T03:01:22;96731.81;;;17.69;47.35
66857;BME280;53766;50.280;19.160;2023-04-01T03:03:50;96725.69;;;17.69;47.45
66857;BME280;53766;50.280;19.160;2023-04-01T03:06:18;96726.50;;;17.69;47.38
66857;BME280;53766;50.280;19.160;2023-04-01T03:08:45;96726.50;;;17.69;47.36
66857;BME280;53766;50.280;19.160;2023-04-01T03:11:13;96724.91;;;17.68;47.37
66857;BME280;53766;50.280;19.160;2023-04-01T03:13:41;96721.19;;;17.69;47.50
66857;BME280;53766;50.280;19.160;2023-04-01T03:16:08;96724.91;;;17.68;47.30
66857;BME280;53766;50.280;19.160;2023-04-01T03:18:36;96723.84;;;17.69;47.34
66857;BME280;53766;50.280;19.160;2023-04-01T03:21:17;96721.19;;;17.69;47.35
66857;BME280;53766;50.280;19.160;2023-04-01T03:23:45;96725.69;;;17.69;47.40
66857;BME280;53766;50.280;19.160;2023-04-01T03:26:12;96721.19;;;17.69;47.35
66857;BME280;53766;50.280;19.160;2023-04-01T03:28:40;96724.91;;;17.68;47.43
66857;BME280;53766;50.280;19.160;2023-04-01T03:31:08;96719.56;;;17.68;47.39
66857;BME280;53766;50.280;19.160;2023-04-01T03:33:36;96732.88;;;17.68;47.41
66857;BME280;53766;50.280;19.160;2023-04-01T03:36:04;96722.25;;;17.68;47.35
66857;BME280;53766;50.280;19.160;2023-04-01T03:38:34;96727.78;;;17.67;47.34
66857;BME280;53766;50.280;19.160;2023-04-01T03:41:02;96724.91;;;17.68;47.32
66857;BME280;53766;50.280;19.160;2023-04-01T03:43:30;96724.06;;;17.68;47.44
66857;BME280;53766;50.280;19.160;2023-04-01T03:45:57;96723.28;;;17.67;47.44
66857;BME280;53766;50.280;19.160;2023-04-01T03:48:25;96720.59;;;17.67;47.33
66857;BME280;53766;50.280;19.160;2023-04-01T03:50:53;96721.66;;;17.66;47.31
66857;BME280;53766;50.280;19.160;2023-04-01T03:53:20;96721.66;;;17.66;47.50
66857;BME280;53766;50.280;19.160;2023-04-01T03:55:48;96716.34;;;17.66;47.48
66857;BME280;53766;50.280;19.160;2023-04-01T03:58:15;96727.78;;;17.67;47.39
66857;BME280;53766;50.280;19.160;2023-04-01T04:00:43;96727.00;;;17.66;47.39
66857;BME280;53766;50.280;19.160;2023-04-01T04:03:10;96720.88;;;17.66;47.31
66857;BME280;53766;50.280;19.160;2023-04-01T04:05:46;96726.19;;;17.66;47.34
66857;BME280;53766;50.280;19.160;2023-04-01T04:08:14;96730.69;;;17.65;47.33
66857;BME280;53766;50.280;19.160;2023-04-01T04:10:41;96727.00;;;17.66;47.44
66857;BME280;53766;50.280;19.160;2023-04-01T04:13:10;96730.69;;;17.65;47.45
66857;BME280;53766;50.280;19.160;2023-04-01T04:15:38;96730.69;;;17.65;47.38
66857;BME280;53766;50.280;19.160;2023-04-01T04:18:05;96727.00;;;17.66;47.36
66857;BME280;53766;50.280;19.160;2023-04-01T04:20:33;96723.78;;;17.64;47.27
66857;BME280;53766;50.280;19.160;2023-04-01T04:23:00;96722.69;;;17.65;47.47
66857;BME280;53766;50.280;19.160;2023-04-01T04:25:28;96723.78;;;17.64;47.47
66857;BME280;53766;50.280;19.160;2023-04-01T04:27:55;96716.81;;;17.63;47.51
66857;BME280;53766;50.280;19.160;2023-04-01T04:30:23;96717.38;;;17.65;47.45
66857;BME280;53766;50.280;19.160;2023-04-01T04:32:51;96723.78;;;17.64;47.41
66857;BME280;53766;50.280;19.160;2023-04-01T04:35:18;96722.69;;;17.65;47.44
66857;BME280;53766;50.280;19.160;2023-04-01T04:37:46;96720.03;;;17.65;47.45
66857;BME280;53766;50.280;19.160;2023-04-01T04:40:13;96723.78;;;17.64;47.46
66857;BME280;53766;50.280;19.160;2023-04-01T04:42:41;96729.88;;;17.65;47.44
66857;BME280;53766;50.280;19.160;2023-04-01T04:45:08;96723.78;;;17.64;47.50
66857;BME280;53766;50.280;19.160;2023-04-01T04:47:36;96719.25;;;17.65;47.41
66857;BME280;53766;50.280;19.160;2023-04-01T04:50:03;96722.69;;;17.65;47.40
66857;BME280;53766;50.280;19.160;2023-04-01T04:52:31;96726.44;;;17.64;47.41
66857;BME280;53766;50.280;19.160;2023-04-01T04:54:58;96725.63;;;17.64;47.40
66857;BME280;53766;50.280;19.160;2023-04-01T04:57:26;96725.38;;;17.65;47.36
66857;BME280;53766;50.280;19.160;2023-04-01T04:59:53;96730.69;;;17.65;47.46
66857;BME280;53766;50.280;19.160;2023-04-01T05:02:21;96736.00;;;17.65;47.36
66857;BME280;53766;50.280;19.160;2023-04-01T05:04:48;96733.34;;;17.65;47.53
66857;BME280;53766;50.280;19.160;2023-04-01T05:07:16;96730.69;;;17.65;47.38
66857;BME280;53766;50.280;19.160;2023-04-01T05:09:43;96736.00;;;17.65;47.49
66857;BME280;53766;50.280;19.160;2023-04-01T05:12:12;96736.00;;;17.65;47.64
66857;BME280;53766;50.280;19.160;2023-04-01T05:14:40;96736.00;;;17.65;47.36
66857;BME280;53766;50.280;19.160;2023-04-01T05:17:09;96735.22;;;17.65;47.56
66857;BME280;53766;50.280;19.160;2023-04-01T05:19:38;96738.69;;;17.65;47.47
66857;BME280;53766;50.280;19.160;2023-04-01T05:22:06;96739.75;;;17.64;47.55
66857;BME280;53766;50.280;19.160;2023-04-01T05:24:33;96744.25;;;17.64;47.55
66857;BME280;53766;50.280;19.160;2023-04-01T05:27:01;96745.06;;;17.64;47.40
66857;BME280;53766;50.280;19.160;2023-04-01T05:29:28;96732.56;;;17.65;47.53
66857;BME280;53766;50.280;19.160;2023-04-01T05:31:56;96736.00;;;17.65;47.42
66857;BME280;53766;50.280;19.160;2023-04-01T05:34:23;96742.97;;;17.66;47.44
66857;BME280;53766;50.280;19.160;2023-04-01T05:36:51;96741.34;;;17.65;47.47
66857;BME280;53766;50.280;19.160;2023-04-01T05:39:19;96746.66;;;17.65;47.47
66857;BME280;53766;50.280;19.160;2023-04-01T05:41:46;96746.66;;;17.65;47.38
66857;BME280;53766;50.280;19.160;2023-04-01T05:44:13;96746.66;;;17.65;47.62
66857;BME280;53766;50.280;19.160;2023-04-01T05:46:41;96742.63;;;17.63;47.43
66857;BME280;53766;50.280;19.160;2023-04-01T05:49:09;96741.84;;;17.62;47.38
66857;BME280;53766;50.280;19.160;2023-04-01T05:51:36;96741.84;;;17.62;47.42
66857;BME280;53766;50.280;19.160;2023-04-01T05:54:05;96747.16;;;17.62;47.25
66857;BME280;53766;50.280;19.160;2023-04-01T05:56:32;96747.16;;;17.62;47.36
66857;BME280;53766;50.280;19.160;2023-04-01T05:59:00;96745.53;;;17.61;47.44
66857;BME280;53766;50.280;19.160;2023-04-01T06:01:27;96750.84;;;17.61;47.46
66857;BME280;53766;50.280;19.160;2023-04-01T06:03:55;96751.69;;;17.62;47.32
66857;BME280;53766;50.280;19.160;2023-04-01T06:06:26;96747.38;;;17.61;47.32
66857;BME280;53766;50.280;19.160;2023-04-01T06:08:56;96753.50;;;17.61;47.45
66857;BME280;53766;50.280;19.160;2023-04-01T06:14:53;96747.63;;;17.59;47.44
66857;BME280;53766;50.280;19.160;2023-04-01T06:28:44;96766.75;;;17.56;47.13
66857;BME280;53766;50.280;19.160;2023-04-01T06:40:17;96756.09;;;17.56;47.10
66857;BME280;53766;50.280;19.160;2023-04-01T06:42:32;96765.13;;;17.55;47.00
66857;BME280;53766;50.280;19.160;2023-04-01T06:47:51;96769.41;;;17.56;46.76
66857;BME280;53766;50.280;19.160;2023-04-01T06:55:46;96765.22;;;17.60;46.84
66857;BME280;53766;50.280;19.160;2023-04-01T06:58:35;96766.03;;;17.61;46.53
66857;BME280;53766;50.280;19.160;2023-04-01T07:01:08;96765.22;;;17.60;46.58
66857;BME280;53766;50.280;19.160;2023-04-01T07:03:49;96765.22;;;17.60;46.42
66857;BME280;53766;50.280;19.160;2023-04-01T07:06:36;96759.66;;;17.62;46.50
66857;BME280;53766;50.280;19.160;2023-04-01T07:09:16;96761.50;;;17.61;46.34
66857;BME280;53766;50.280;19.160;2023-04-01T07:11:45;96768.44;;;17.62;46.22
66857;BME280;53766;50.280;19.160;2023-04-01T07:14:16;96764.72;;;17.63;46.30
66857;BME280;53766;50.280;19.160;2023-04-01T07:17:17;96775.38;;;17.63;46.25
66857;BME280;53766;50.280;19.160;2023-04-01T07:19:56;96779.09;;;17.62;46.39
66857;BME280;53766;50.280;19.160;2023-04-01T07:25:11;96781.75;;;17.62;46.29
66857;BME280;53766;50.280;19.160;2023-04-01T07:27:41;96781.75;;;17.62;46.27
66857;BME280;53766;50.280;19.160;2023-04-01T07:30:16;96777.47;;;17.61;46.23
66857;BME280;53766;50.280;19.160;2023-04-01T07:32:47;96783.63;;;17.62;46.29
66857;BME280;53766;50.280;19.160;2023-04-01T07:35:30;96784.44;;;17.62;46.12
66857;BME280;53766;50.280;19.160;2023-04-01T07:40:43;96788.13;;;17.61;46.27
66857;BME280;53766;50.280;19.160;2023-04-01T07:43:36;96788.94;;;17.62;46.20
66857;BME280;53766;50.280;19.160;2023-04-01T07:46:21;96792.63;;;17.61;46.17
66857;BME280;53766;50.280;19.160;2023-04-01T07:48:55;96790.22;;;17.59;46.07
66857;BME280;53766;50.280;19.160;2023-04-01T07:51:34;96796.59;;;17.58;45.93
66857;BME280;53766;50.280;19.160;2023-04-01T07:54:10;96797.66;;;17.57;45.67
66857;BME280;53766;50.280;19.160;2023-04-01T07:56:52;96794.41;;;17.55;45.65
66857;BME280;53766;50.280;19.160;2023-04-01T08:05:22;96801.84;;;17.53;45.35
66857;BME280;53766;50.280;19.160;2023-04-01T08:10:57;96807.97;;;17.54;45.08
66857;BME280;53766;50.280;19.160;2023-04-01T08:13:34;96803.44;;;17.54;45.06
66857;BME280;53766;50.280;19.160;2023-04-01T08:16:34;96808.75;;;17.54;45.13
66857;BME280;53766;50.280;19.160;2023-04-01T08:21:52;96808.75;;;17.54;45.15
66857;BME280;53766;50.280;19.160;2023-04-01T08:24:40;96803.22;;;17.56;45.16
66857;BME280;53766;50.280;19.160;2023-04-01T08:27:50;96811.75;;;17.58;45.09
66857;BME280;53766;50.280;19.160;2023-04-01T08:30:24;96809.91;;;17.58;45.06
66857;BME280;53766;50.280;19.160;2023-04-01T08:33:03;96809.91;;;17.58;45.10
66857;BME280;53766;50.280;19.160;2023-04-01T08:36:10;96814.44;;;17.58;45.15
66857;BME280;53766;50.280;19.160;2023-04-01T08:47:28;96806.19;;;17.59;45.48
66857;BME280;53766;50.280;19.160;2023-04-01T08:50:19;96807.81;;;17.60;45.57
66857;BME280;53766;50.280;19.160;2023-04-01T08:56:10;96814.28;;;17.64;45.47
66857;BME280;53766;50.280;19.160;2023-04-01T08:58:51;96807.31;;;17.63;45.52
66857;BME280;53766;50.280;19.160;2023-04-01T09:12:53;96812.75;;;17.68;45.31
66857;BME280;53766;50.280;19.160;2023-04-01T09:15:42;96813.78;;;17.67;45.48
66857;BME280;53766;50.280;19.160;2023-04-01T09:18:36;96812.19;;;17.66;45.13
66857;BME280;53766;50.280;19.160;2023-04-01T09:21:34;96811.13;;;17.67;45.17
66857;BME280;53766;50.280;19.160;2023-04-01T09:27:13;96810.09;;;17.68;45.19
66857;BME280;53766;50.280;19.160;2023-04-01T09:47:01;96810.09;;;17.68;45.28
66857;BME280;53766;50.280;19.160;2023-04-01T10:34:12;96817.22;;;17.80;46.67
66857;BME280;53766;50.280;19.160;2023-04-01T10:45:30;96831.56;;;17.79;47.04
66857;BME280;53766;50.280;19.160;2023-04-01T10:53:59;96833.19;;;17.80;47.07
66857;BME280;53766;50.280;19.160;2023-04-01T10:56:36;96820.47;;;17.82;46.86
66857;BME280;53766;50.280;19.160;2023-04-01T11:24:26;96825.50;;;17.95;46.63
66857;BME280;53766;50.280;19.160;2023-04-01T11:27:35;96817.50;;;17.95;46.86
66857;BME280;53766;50.280;19.160;2023-04-01T11:39:17;96819.13;;;17.96;46.42
66857;BME280;53766;50.280;19.160;2023-04-01T11:44:24;96819.59;;;17.93;46.54
66857;BME280;53766;50.280;19.160;2023-04-01T11:47:39;96811.63;;;17.93;46.46
66857;BME280;53766;50.280;19.160;2023-04-01T11:52:55;96814.84;;;17.95;46.15
66857;BME280;53766;50.280;19.160;2023-04-01T12:01:00;96811.97;;;17.97;46.16
66857;BME280;53766;50.280;19.160;2023-04-01T12:12:39;96824.38;;;17.91;46.29
66857;BME280;53766;50.280;19.160;2023-04-01T12:18:35;96828.09;;;17.90;46.12
66857;BME280;53766;50.280;19.160;2023-04-01T12:30:06;96818.69;;;17.87;46.13
66857;BME280;53766;50.280;19.160;2023-04-01T12:41:30;96837.59;;;17.86;46.13
66857;BME280;53766;50.280;19.160;2023-04-01T12:49:47;96831.44;;;17.85;45.85
66857;BME280;53766;50.280;19.160;2023-04-01T12:52:29;96836.78;;;17.85;45.98
66857;BME280;53766;50.280;19.160;2023-04-01T13:01:19;96831.78;;;17.89;45.80
66857;BME280;53766;50.280;19.160;2023-04-01T13:04:30;96824.38;;;17.91;45.75
66857;BME280;53766;50.280;19.160;2023-04-01T13:10:06;96838.75;;;17.90;45.56
66857;BME280;53766;50.280;19.160;2023-04-01T13:28:43;96842.66;;;17.87;45.60
66857;BME280;53766;50.280;19.160;2023-04-01T13:31:25;96853.31;;;17.87;45.63
66857;BME280;53766;50.280;19.160;2023-04-01T13:41:47;96855.97;;;17.87;45.40
66857;BME280;53766;50.280;19.160;2023-04-01T13:44:37;96858.41;;;17.89;45.40
66857;BME280;53766;50.280;19.160;2023-04-01T14:01:10;96871.16;;;17.87;45.49
66857;BME280;53766;50.280;19.160;2023-04-01T14:04:03;96878.56;;;17.85;45.19
66857;BME280;53766;50.280;19.160;2023-04-01T14:12:32;96889.72;;;17.82;45.16
66857;BME280;53766;50.280;19.160;2023-04-01T14:18:13;96887.25;;;17.80;45.25
66857;BME280;53766;50.280;19.160;2023-04-01T14:21:20;96894.44;;;17.80;45.29
66857;BME280;53766;50.280;19.160;2023-04-01T14:23:57;96900.56;;;17.80;45.17
66857;BME280;53766;50.280;19.160;2023-04-01T14:34:55;96918.41;;;17.80;45.10
66857;BME280;53766;50.280;19.160;2023-04-01T14:40:28;96915.16;;;17.78;45.16
66857;BME280;53766;50.280;19.160;2023-04-01T14:43:25;96915.16;;;17.78;45.29
66857;BME280;53766;50.280;19.160;2023-04-01T14:46:17;96908.22;;;17.77;44.98
66857;BME280;53766;50.280;19.160;2023-04-01T14:48:51;96913.53;;;17.77;45.09
66857;BME280;53766;50.280;19.160;2023-04-01T14:51:34;96920.97;;;17.75;45.22
66857;BME280;53766;50.280;19.160;2023-04-01T14:54:12;96913.22;;;17.73;45.29
66857;BME280;53766;50.280;19.160;2023-04-01T14:56:48;96910.56;;;17.73;45.06
66857;BME280;53766;50.280;19.160;2023-04-01T15:07:53;96917.75;;;17.73;45.26
66857;BME280;53766;50.280;19.160;2023-04-01T15:13:14;96923.88;;;17.73;45.25
66857;BME280;53766;50.280;19.160;2023-04-01T15:24:16;96927.34;;;17.74;45.30
66857;BME280;53766;50.280;19.160;2023-04-01T15:29:43;96927.56;;;17.72;45.37
66857;BME280;53766;50.280;19.160;2023-04-01T15:43:49;96945.63;;;17.70;45.42
66857;BME280;53766;50.280;19.160;2023-04-01T15:46:48;96942.16;;;17.69;45.39
66857;BME280;53766;50.280;19.160;2023-04-01T15:49:19;96950.16;;;17.69;45.43
66857;BME280;53766;50.280;19.160;2023-04-01T16:04:17;96954.31;;;17.65;45.42
66857;BME280;53766;50.280;19.160;2023-04-01T16:10:21;96961.72;;;17.63;45.77
66857;BME280;53766;50.280;19.160;2023-04-01T16:24:35;96960.94;;;17.63;46.24
66857;BME280;53766;50.280;19.160;2023-04-01T16:29:46;96973.66;;;17.61;46.21
66857;BME280;53766;50.280;19.160;2023-04-01T16:45:41;96990.91;;;17.58;46.69
66857;BME280;53766;50.280;19.160;2023-04-01T16:48:15;96996.25;;;17.58;46.73
66857;BME280;53766;50.280;19.160;2023-04-01T16:53:21;96994.63;;;17.57;46.70
66857;BME280;53766;50.280;19.160;2023-04-01T16:55:55;97005.28;;;17.57;46.92
66857;BME280;53766;50.280;19.160;2023-04-01T16:58:40;97013.28;;;17.57;46.87
66857;BME280;53766;50.280;19.160;2023-04-01T17:01:20;97015.94;;;17.57;47.06
66857;BME280;53766;50.280;19.160;2023-04-01T17:03:57;97015.94;;;17.57;47.05
66857;BME280;53766;50.280;19.160;2023-04-01T17:06:44;97028.19;;;17.58;47.07
66857;BME280;53766;50.280;19.160;2023-04-01T17:09:24;97028.19;;;17.58;47.19
66857;BME280;53766;50.280;19.160;2023-04-01T17:20:23;97044.97;;;17.59;47.50
66857;BME280;53766;50.280;19.160;2023-04-01T17:23:28;97046.81;;;17.58;47.26
66857;BME280;53766;50.280;19.160;2023-04-01T17:28:52;97053.22;;;17.57;47.52
66857;BME280;53766;50.280;19.160;2023-04-01T17:39:35;97060.13;;;17.58;47.51
66857;BME280;53766;50.280;19.160;2023-04-01T17:42:16;97065.47;;;17.58;47.61
66857;BME280;53766;50.280;19.160;2023-04-01T17:44:57;97069.97;;;17.58;47.64
66857;BME280;53766;50.280;19.160;2023-04-01T17:58:59;97084.09;;;17.58;47.71
66857;BME280;53766;50.280;19.160;2023-04-01T18:10:04;97102.72;;;17.58;47.71
66857;BME280;53766;50.280;19.160;2023-04-01T18:12:54;97104.81;;;17.56;47.80
66857;BME280;53766;50.280;19.160;2023-04-01T18:23:50;97120.78;;;17.56;47.94
66857;BME280;53766;50.280;19.160;2023-04-01T18:26:34;97125.31;;;17.56;47.88
66857;BME280;53766;50.280;19.160;2023-04-01T18:29:40;97122.66;;;17.56;48.00
66857;BME280;53766;50.280;19.160;2023-04-01T18:35:03;97131.44;;;17.56;48.11
66857;BME280;53766;50.280;19.160;2023-04-01T18:40:35;97143.13;;;17.55;47.87
66857;BME280;53766;50.280;19.160;2023-04-01T18:45:56;97142.31;;;17.55;48.00
66857;BME280;53766;50.280;19.160;2023-04-01T18:54:29;97152.16;;;17.54;47.96
66857;BME280;53766;50.280;19.160;2023-04-01T19:00:05;97162.00;;;17.54;48.16
66857;BME280;53766;50.280;19.160;2023-04-01T19:05:31;97163.00;;;17.53;48.00
66857;BME280;53766;50.280;19.160;2023-04-01T19:13:55;97175.53;;;17.52;48.13
66857;BME280;53766;50.280;19.160;2023-04-01T19:16:43;97171.84;;;17.53;48.12
66857;BME280;53766;50.280;19.160;2023-04-01T19:27:34;97190.47;;;17.53;48.04
66857;BME280;53766;50.280;19.160;2023-04-01T19:46:35;97197.41;;;17.54;48.16
66857;BME280;53766;50.280;19.160;2023-04-01T20:00:02;97225.66;;;17.55;48.19
66857;BME280;53766;50.280;19.160;2023-04-01T20:11:08;97222.16;;;17.55;48.16
66857;BME280;53766;50.280;19.160;2023-04-01T20:16:14;97229.34;;;17.54;48.29
66857;BME280;53766;50.280;19.160;2023-04-01T20:18:51;97224.03;;;17.54;48.19
66857;BME280;53766;50.280;19.160;2023-04-01T20:21:42;97230.16;;;17.55;48.43
66857;BME280;53766;50.280;19.160;2023-04-01T20:24:16;97233.66;;;17.55;48.35
66857;BME280;53766;50.280;19.160;2023-04-01T20:26:53;97226.69;;;17.54;48.21
66857;BME280;53766;50.280;19.160;2023-04-01T20:34:39;97237.91;;;17.56;48.35
66857;BME280;53766;50.280;19.160;2023-04-01T20:40:26;97241.63;;;17.55;48.33
66857;BME280;53766;50.280;19.160;2023-04-01T20:43:03;97245.31;;;17.54;48.34
66857;BME280;53766;50.280;19.160;2023-04-01T20:48:46;97248.78;;;17.55;48.35
66857;BME280;53766;50.280;19.160;2023-04-01T20:51:24;97246.38;;;17.53;48.38
66857;BME280;53766;50.280;19.160;2023-04-01T20:57:21;97254.34;;;17.53;48.32
66857;BME280;53766;50.280;19.160;2023-04-01T21:06:04;97265.00;;;17.53;48.52
66857;BME280;53766;50.280;19.160;2023-04-01T21:08:56;97259.69;;;17.53;48.54
66857;BME280;53766;50.280;19.160;2023-04-01T21:16:48;97269.50;;;17.53;48.44
66857;BME280;53766;50.280;19.160;2023-04-01T21:19:45;97274.81;;;17.53;48.54
66857;BME280;53766;50.280;19.160;2023-04-01T21:22:25;97274.00;;;17.52;48.52
66857;BME280;53766;50.280;19.160;2023-04-01T21:25:27;97274.00;;;17.52;48.39
66857;BME280;53766;50.280;19.160;2023-04-01T21:34:25;97280.97;;;17.53;48.61
66857;BME280;53766;50.280;19.160;2023-04-01T21:44:42;97291.63;;;17.53;48.51
66857;BME280;53766;50.280;19.160;2023-04-01T22:06:50;97300.63;;;17.52;48.57
66857;BME280;53766;50.280;19.160;2023-04-01T22:09:26;97294.50;;;17.52;48.54
66857;BME280;53766;50.280;19.160;2023-04-01T22:12:07;97297.38;;;17.50;48.46
66857;BME280;53766;50.280;19.160;2023-04-01T22:17:47;97299.03;;;17.51;48.45
66857;BME280;53766;50.280;19.160;2023-04-01T22:26:02;97311.28;;;17.52;48.34
66857;BME280;53766;50.280;19.160;2023-04-01T22:28:40;97309.66;;;17.51;48.45
66857;BME280;53766;50.280;19.160;2023-04-01T22:31:15;97317.66;;;17.51;48.64
66857;BME280;53766;50.280;19.160;2023-04-01T22:34:03;97315.00;;;17.51;48.53
66857;BME280;53766;50.280;19.160;2023-04-01T22:44:38;97313.34;;;17.50;48.77
66857;BME280;53766;50.280;19.160;2023-04-01T22:49:51;97316.00;;;17.50;48.62
66857;BME280;53766;50.280;19.160;2023-04-01T22:55:04;97324.81;;;17.51;48.71
66857;BME280;53766;50.280;19.160;2023-04-01T22:57:45;97324.81;;;17.51;48.67
66857;BME280;53766;50.280;19.160;2023-04-01T23:00:18;97332.00;;;17.50;48.79
66857;BME280;53766;50.280;19.160;2023-04-01T23:05:20;97332.78;;;17.51;48.64
66857;BME280;53766;50.280;19.160;2023-04-01T23:10:52;97330.97;;;17.51;48.88
66857;BME280;53766;50.280;19.160;2023-04-01T23:13:30;97338.13;;;17.51;48.79
66857;BME280;53766;50.280;19.160;2023-04-01T23:15:59;97333.63;;;17.51;48.74
66857;BME280;53766;50.280;19.160;2023-04-01T23:26:54;97333.84;;;17.50;48.85
66857;BME280;53766;50.280;19.160;2023-04-01T23:29:24;97340.78;;;17.51;48.58
66857;BME280;53766;50.280;19.160;2023-04-01T23:31:59;97344.28;;;17.51;48.68
66857;BME280;53766;50.280;19.160;2023-04-01T23:34:30;97345.28;;;17.50;48.74
66857;BME280;53766;50.280;19.160;2023-04-01T23:37:04;97344.50;;;17.50;48.82
66857;BME280;53766;50.280;19.160;2023-04-01T23:39:40;97347.97;;;17.50;48.74